Asian Naga — 3FOV4 — position and weather

sailwx.info

Track history (hours):
 
Tides and Currents Weather Stations Pressure Air Temp Water Temp Dewpoint Dewpoint Depression Visibility Wind Speed Wind Dir Waves Ship Positions

Asian Naga

Last reported at 2018-Feb-25 01:30 UTC. Time now 2018-Feb-25 01:42 UTC.
Position N 46°05' W 124°18'.

Length 124 m; draft 8 m.

Type: Cargo ship. MMSI: 357353000.

Date/timePositionNaut miles runAvg speedWind from/ knotsBaromVisibWave heightAir tempDewpointWater temp
2018-Feb-25 01:30N 46°05' W 124°18'5 9.4
2018-Feb-25 01:00N 46°00' W 124°17'4 8.9
2018-Feb-25 00:30N 45°56' W 124°15'5 9.3
2018-Feb-25 00:01N 45°51' W 124°14'5 9.1
2018-Feb-24 23:30N 45°47' W 124°13'5 8.8
2018-Feb-24 22:53N 45°42' W 124°12'3 8.6
2018-Feb-24 22:31N 45°38' W 124°11'4 8.7
2018-Feb-24 22:01N 45°34' W 124°10'4 8.7
2018-Feb-24 21:30N 45°30' W 124°10'4 8.3
2018-Feb-24 21:00N 45°26' W 124°10'4 7.9
2018-Feb-24 20:30N 45°22' W 124°10'4 7.7
2018-Feb-24 20:00N 45°18' W 124°11'4 7.6
2018-Feb-24 19:28N 45°14' W 124°11'392 9.5
2018-Feb-23 02:00N 38°42' W 123°36'3 6.8
2018-Feb-23 01:30N 38°40' W 123°33'4 7.3
2018-Feb-23 01:00N 38°37' W 123°30'4 7.9
2018-Feb-23 00:30N 38°34' W 123°27'4 7.8
2018-Feb-23 00:00N 38°31' W 123°25'4 8.8
2018-Feb-22 23:30N 38°26' W 123°25'5 9.7
2018-Feb-22 23:00N 38°21' W 123°25'5 9.6
2018-Feb-22 22:30N 38°17' W 123°25'5 9.4
2018-Feb-22 22:00N 38°12' W 123°26'510.1
2018-Feb-22 21:30N 38°07' W 123°26'510.0
2018-Feb-22 21:00N 38°02' W 123°25'510.2
2018-Feb-22 20:30N 37°57' W 123°25'510.1
2018-Feb-22 20:00N 37°52' W 123°24'510.6
2018-Feb-22 19:30N 37°47' W 123°24'510.3
2018-Feb-22 19:00N 37°41' W 123°25'6 8.9
2018-Feb-22 18:22N 37°36' W 123°23'17411.0
2018-Feb-22 02:34N 35°08' W 121°29'112.6
2018-Feb-22 02:30N 35°07' W 121°28'612.8
2018-Feb-22 02:00N 35°02' W 121°24'612.2
2018-Feb-22 01:30N 34°57' W 121°19'612.4
2018-Feb-22 01:00N 34°52' W 121°15'612.7
2018-Feb-22 00:29N 34°47' W 121°10'612.8
2018-Feb-22 00:00N 34°42' W 121°06'612.4
2018-Feb-21 23:30N 34°37' W 121°01'612.4
2018-Feb-21 23:00N 34°32' W 120°56'612.5
2018-Feb-21 22:30N 34°27' W 120°52'612.1
2018-Feb-21 22:00N 34°25' W 120°45'712.2
2018-Feb-21 21:28N 34°23' W 120°38'612.1
2018-Feb-21 21:00N 34°22' W 120°31'612.2
2018-Feb-21 20:29N 34°20' W 120°24'612.3
2018-Feb-21 19:59N 34°18' W 120°16'712.2
2018-Feb-21 19:26N 34°16' W 120°09'612.5
2018-Feb-21 18:58N 34°15' W 120°02'612.5
2018-Feb-21 18:29N 34°13' W 119°55'712.5
2018-Feb-21 17:56N 34°11' W 119°47'612.9
2018-Feb-21 17:30N 34°10' W 119°40'813.1
2018-Feb-21 16:56N 34°08' W 119°32'713.0
2018-Feb-21 16:22N 34°06' W 119°23'513.0
2018-Feb-21 16:00N 34°05' W 119°18'713.0
2018-Feb-21 15:26N 34°02' W 119°09'613.1
2018-Feb-21 15:00N 33°59' W 119°04'713.2
2018-Feb-21 14:30N 33°55' W 118°57'713.3
2018-Feb-21 14:00N 33°52' W 118°50'713.4
2018-Feb-21 13:29N 33°49' W 118°43'2113.1
2018-Feb-21 11:52N 33°38' W 118°20'711.6
2018-Feb-21 11:18N 33°38' W 118°13'311.9
2018-Feb-21 11:00N 33°42' W 118°11'3 5.6
2018-Feb-21 10:29N 33°45' W 118°12'0 0.0
2018-Feb-21 09:59N 33°45' W 118°12'0 0.0
2018-Feb-21 09:29N 33°45' W 118°12'0 0.0
2018-Feb-21 08:59N 33°45' W 118°12'0 0.0
2018-Feb-21 08:29N 33°45' W 118°12'0 0.0
2018-Feb-21 07:59N 33°45' W 118°12'0 0.0
2018-Feb-21 07:29N 33°45' W 118°12'0 0.0
2018-Feb-21 06:59N 33°45' W 118°12'0 0.0
2018-Feb-21 06:29N 33°45' W 118°12'0 0.0
2018-Feb-21 05:59N 33°45' W 118°12'0 0.0
2018-Feb-21 05:29N 33°45' W 118°12'0 0.0
2018-Feb-21 04:59N 33°45' W 118°12'0 0.0
2018-Feb-21 04:29N 33°45' W 118°12'0 0.0
2018-Feb-21 03:59N 33°45' W 118°12'0 0.0
2018-Feb-21 03:29N 33°45' W 118°12'0 0.0
2018-Feb-21 02:59N 33°45' W 118°12'0 0.0
2018-Feb-21 02:29N 33°45' W 118°12'0 0.0
2018-Feb-21 01:59N 33°45' W 118°12'0 0.0
2018-Feb-21 01:29N 33°45' W 118°12'0 0.0
2018-Feb-21 00:59N 33°45' W 118°12'0 0.0
2018-Feb-21 00:29N 33°45' W 118°12'0 0.0
2018-Feb-20 23:59N 33°45' W 118°12'0 0.0
2018-Feb-20 23:29N 33°45' W 118°12'0 0.0
2018-Feb-20 22:59N 33°45' W 118°12'0 0.0
2018-Feb-20 22:29N 33°45' W 118°12'0 0.0
2018-Feb-20 21:59N 33°45' W 118°12'0 0.0
2018-Feb-20 21:29N 33°45' W 118°12'0 0.0
2018-Feb-20 20:59N 33°45' W 118°12'0 0.0
2018-Feb-20 20:29N 33°45' W 118°12'0 0.0
2018-Feb-20 19:59N 33°45' W 118°12'0 0.0
2018-Feb-20 19:26N 33°45' W 118°12'0 0.0
2018-Feb-20 18:59N 33°45' W 118°12'0 0.0
2018-Feb-20 18:26N 33°45' W 118°12'0 0.0
2018-Feb-20 17:59N 33°45' W 118°12'0 0.0
2018-Feb-20 17:29N 33°45' W 118°12'0 0.0
2018-Feb-20 16:59N 33°45' W 118°12'0 0.0
2018-Feb-20 16:29N 33°45' W 118°12'0 0.0
2018-Feb-20 15:59N 33°45' W 118°12'0 0.0
2018-Feb-20 15:29N 33°45' W 118°12'0 0.5
2018-Feb-20 15:00N 33°44' W 118°12'2 3.3
2018-Feb-20 14:30N 33°45' W 118°10'0 0.0
2018-Feb-20 11:09N 33°45' W 118°10'0 0.0
2018-Feb-20 10:57N 33°45' W 118°10'0 0.0
2018-Feb-20 09:45N 33°45' W 118°10'0 0.0
2018-Feb-20 09:30N 33°45' W 118°10'0 0.0
2018-Feb-20 03:03N 33°45' W 118°10'0 0.0
2018-Feb-20 02:54N 33°45' W 118°10'0 0.0
2018-Feb-20 02:26N 33°45' W 118°10'0 0.1
2018-Feb-20 01:57N 33°45' W 118°10'0 0.0
2018-Feb-20 01:29N 33°45' W 118°10'0 0.1
2018-Feb-20 01:00N 33°45' W 118°10'0 0.1
2018-Feb-20 00:30N 33°45' W 118°10'0 0.1
2018-Feb-20 00:00N 33°45' W 118°10'0 0.0
2018-Feb-19 23:27N 33°45' W 118°10'0 0.1
2018-Feb-19 23:00N 33°45' W 118°10'0 0.1
2018-Feb-19 22:27N 33°45' W 118°10'0 0.0
2018-Feb-19 21:59N 33°45' W 118°10'0 0.1
2018-Feb-19 21:24N 33°45' W 118°10'0 0.1
2018-Feb-19 20:59N 33°45' W 118°10'0 0.0
2018-Feb-19 20:29N 33°45' W 118°10'0 0.0
2018-Feb-19 20:00N 33°45' W 118°10'0 0.0
2018-Feb-19 19:30N 33°45' W 118°10'0 0.0
2018-Feb-19 19:00N 33°45' W 118°10'0 0.0
2018-Feb-19 18:30N 33°45' W 118°10'0 0.0
2018-Feb-19 17:59N 33°45' W 118°10'0 0.0
2018-Feb-19 17:29N 33°45' W 118°10'0 0.0
2018-Feb-19 17:00N 33°45' W 118°10'0 0.0
2018-Feb-19 16:29N 33°45' W 118°10'0 0.0
2018-Feb-19 16:00N 33°45' W 118°10'0 0.0
2018-Feb-19 15:29N 33°45' W 118°10'0 0.0
2018-Feb-19 14:59N 33°45' W 118°10'0 0.0
2018-Feb-19 14:20N 33°45' W 118°10'0 0.0
2018-Feb-19 13:33N 33°45' W 118°10'0 0.0
2018-Feb-19 13:23N 33°45' W 118°10'0 0.0
2018-Feb-19 12:56N 33°45' W 118°10'0 0.0
2018-Feb-19 09:56N 33°45' W 118°10'0 0.0
2018-Feb-19 09:20N 33°45' W 118°10'0 0.0
2018-Feb-19 06:02N 33°45' W 118°10'0 0.4
2018-Feb-19 05:59N 33°45' W 118°10'0 0.0
2018-Feb-19 05:17N 33°45' W 118°10'0 0.0
2018-Feb-19 04:59N 33°45' W 118°10'0 0.0
2018-Feb-19 04:29N 33°45' W 118°10'0 0.0
2018-Feb-19 03:59N 33°45' W 118°10'0 0.0
2018-Feb-19 03:05N 33°45' W 118°10'0 0.0
2018-Feb-19 02:50N 33°45' W 118°10'0 0.0
2018-Feb-19 02:29N 33°45' W 118°10'0 0.0
2018-Feb-19 01:50N 33°45' W 118°10'0 0.0
2018-Feb-19 01:29N 33°45' W 118°10'0 0.0
2018-Feb-19 00:59N 33°45' W 118°10'0 0.0
2018-Feb-19 00:29N 33°45' W 118°10'0 0.0
2018-Feb-18 23:59N 33°45' W 118°10'0 0.0
2018-Feb-18 23:29N 33°45' W 118°10'0 0.0
2018-Feb-18 22:59N 33°45' W 118°10'0 0.0
2018-Feb-18 22:29N 33°45' W 118°10'0 0.0
2018-Feb-18 21:59N 33°45' W 118°10'0 0.0
2018-Feb-18 21:29N 33°45' W 118°10'0 0.1
2018-Feb-18 20:56N 33°45' W 118°10'0 0.0
2018-Feb-18 20:29N 33°45' W 118°10'0 0.0
2018-Feb-18 19:59N 33°45' W 118°10'0 0.0
2018-Feb-18 19:29N 33°45' W 118°10'0 0.0
2018-Feb-18 18:59N 33°45' W 118°10'0 0.2
2018-Feb-18 18:26N 33°45' W 118°10'0 0.1
2018-Feb-18 17:59N 33°45' W 118°10'0 0.1
2018-Feb-18 17:29N 33°45' W 118°10'0 0.0
2018-Feb-18 16:56N 33°45' W 118°10'0 0.0
2018-Feb-18 16:29N 33°45' W 118°10'0 0.0
2018-Feb-18 15:59N 33°45' W 118°10'0 0.1
2018-Feb-18 15:26N 33°45' W 118°10'0 0.0
2018-Feb-18 14:59N 33°45' W 118°10'0 0.0
2018-Feb-18 14:29N 33°45' W 118°10'0 0.0
2018-Feb-18 13:32N 33°45' W 118°10'0 0.0
2018-Feb-18 13:20N 33°45' W 118°10'0 0.0
2018-Feb-18 12:56N 33°45' W 118°10'0 0.0
2018-Feb-18 12:26N 33°45' W 118°10'0 0.0
2018-Feb-18 11:57N 33°45' W 118°10'0 0.0
2018-Feb-18 11:26N 33°45' W 118°10'0 0.0
2018-Feb-18 10:50N 33°45' W 118°10'0 0.0
2018-Feb-18 10:26N 33°45' W 118°10'0 0.1
2018-Feb-18 09:50N 33°45' W 118°10'0 0.0
2018-Feb-18 08:26N 33°45' W 118°10'0 0.0
2018-Feb-18 07:56N 33°45' W 118°10'0 0.1
2018-Feb-18 07:26N 33°45' W 118°10'0 0.0
2018-Feb-18 06:59N 33°45' W 118°10'0 0.1
2018-Feb-18 06:26N 33°45' W 118°10'0 0.1
2018-Feb-18 05:47N 33°45' W 118°10'0 0.1
2018-Feb-18 05:08N 33°45' W 118°10'0 0.0
2018-Feb-18 02:02N 33°45' W 118°10'0 0.0
2018-Feb-18 01:50N 33°45' W 118°10'0 0.1
2018-Feb-18 01:29N 33°45' W 118°10'0 0.0
2018-Feb-18 00:59N 33°45' W 118°10'0 0.1
2018-Feb-18 00:26N 33°45' W 118°10'0 0.1
2018-Feb-17 23:59N 33°45' W 118°10'0 0.1
2018-Feb-17 23:29N 33°45' W 118°10'0 0.0
2018-Feb-17 22:59N 33°45' W 118°10'0 0.0
2018-Feb-17 22:23N 33°45' W 118°10'0 0.0
2018-Feb-17 21:59N 33°45' W 118°10'0 0.1
2018-Feb-17 21:29N 33°45' W 118°10'0 0.0
2018-Feb-17 20:56N 33°45' W 118°10'0 0.0
2018-Feb-17 20:26N 33°45' W 118°10'0 0.0
2018-Feb-17 19:59N 33°45' W 118°10'0 0.0
2018-Feb-17 19:29N 33°45' W 118°10'0 0.0
2018-Feb-17 18:59N 33°45' W 118°10'0 0.0
2018-Feb-17 18:29N 33°45' W 118°10'0 0.1
2018-Feb-17 17:59N 33°45' W 118°10'0 0.0
2018-Feb-17 17:26N 33°45' W 118°10'0 0.0
2018-Feb-17 16:59N 33°45' W 118°10'0 0.1
2018-Feb-17 16:30N 33°45' W 118°10'3 6.3
2018-Feb-17 16:00N 33°42' W 118°11'4 7.9
2018-Feb-17 15:30N 33°38' W 118°12'510.1
2018-Feb-17 14:59N 33°36' W 118°18'1011.0
2018-Feb-17 14:02N 33°40' W 118°30'011.6
2018-Feb-17 14:00N 33°41' W 118°30'611.5
2018-Feb-17 13:30N 33°43' W 118°36'612.5
2018-Feb-17 13:00N 33°46' W 118°43'712.7
2018-Feb-17 12:26N 33°50' W 118°50'612.9
2018-Feb-17 11:59N 33°53' W 118°57'612.5
2018-Feb-17 11:29N 33°56' W 119°03'712.6
2018-Feb-17 10:57N 33°59' W 119°10'612.8
2018-Feb-17 10:29N 34°02' W 119°16'612.6
2018-Feb-17 10:00N 34°04' W 119°23'712.8
2018-Feb-17 09:30N 34°06' W 119°31'712.9
2018-Feb-17 08:57N 34°08' W 119°39'613.1
2018-Feb-17 08:30N 34°09' W 119°46'613.4
2018-Feb-17 08:00N 34°11' W 119°54'712.8
2018-Feb-17 07:29N 34°13' W 120°01'612.6
2018-Feb-17 07:00N 34°14' W 120°08'712.8
2018-Feb-17 06:30N 34°16' W 120°16'712.8
2018-Feb-17 05:57N 34°18' W 120°24'612.6
2018-Feb-17 05:29N 34°19' W 120°31'612.6
2018-Feb-17 04:59N 34°21' W 120°39'712.7
2018-Feb-17 04:28N 34°23' W 120°46'612.9
2018-Feb-17 04:00N 34°24' W 120°53'613.0
2018-Feb-17 03:30N 34°25' W 121°01'713.5
2018-Feb-17 03:00N 34°27' W 121°09'714.0
2018-Feb-17 02:31N 34°29' W 121°17'713.8
2018-Feb-17 02:00N 34°30' W 121°25'713.6
2018-Feb-17 01:30N 34°31' W 121°33'713.3
2018-Feb-17 01:00N 34°32' W 121°41'613.0
2018-Feb-17 00:30N 34°34' W 121°49'713.0
2018-Feb-17 00:00N 34°35' W 121°57'612.5
2018-Feb-16 23:30N 34°36' W 122°04'1912.2
2018-Feb-16 21:59N 34°40' W 122°27'712.4
2018-Feb-16 21:25N 34°41' W 122°35'512.1
2018-Feb-16 21:00N 34°41' W 122°41'712.0
2018-Feb-16 20:27N 34°42' W 122°49'512.1
2018-Feb-16 20:00N 34°42' W 122°56'2612.1
2018-Feb-16 17:53N 34°46' W 123°26'  
Track history (hours):
 
Tides and Currents Weather Stations Pressure Air Temp Water Temp Dewpoint Dewpoint Depression Visibility Wind Speed Wind Dir Waves Ship Positions

Asian Naga

Last reported at 2018-Feb-25 01:30 UTC. Time now 2018-Feb-25 01:42 UTC.
Position N 46°05' W 124°18'.

Length 124 m; draft 8 m.

Type: Cargo ship. MMSI: 357353000.

Date/timePositionNaut miles runAvg speedWind from/ knotsBaromVisibWave heightAir tempDewpointWater temp
2018-Feb-25 01:30N 46°05' W 124°18'5 9.4
2018-Feb-25 01:00N 46°00' W 124°17'4 8.9
2018-Feb-25 00:30N 45°56' W 124°15'5 9.3
2018-Feb-25 00:01N 45°51' W 124°14'5 9.1
2018-Feb-24 23:30N 45°47' W 124°13'5 8.8
2018-Feb-24 22:53N 45°42' W 124°12'3 8.6
2018-Feb-24 22:31N 45°38' W 124°11'4 8.7
2018-Feb-24 22:01N 45°34' W 124°10'4 8.7
2018-Feb-24 21:30N 45°30' W 124°10'4 8.3
2018-Feb-24 21:00N 45°26' W 124°10'4 7.9
2018-Feb-24 20:30N 45°22' W 124°10'4 7.7
2018-Feb-24 20:00N 45°18' W 124°11'4 7.6
2018-Feb-24 19:28N 45°14' W 124°11'392 9.5
2018-Feb-23 02:00N 38°42' W 123°36'3 6.8
2018-Feb-23 01:30N 38°40' W 123°33'4 7.3
2018-Feb-23 01:00N 38°37' W 123°30'4 7.9
2018-Feb-23 00:30N 38°34' W 123°27'4 7.8
2018-Feb-23 00:00N 38°31' W 123°25'4 8.8
2018-Feb-22 23:30N 38°26' W 123°25'5 9.7
2018-Feb-22 23:00N 38°21' W 123°25'5 9.6
2018-Feb-22 22:30N 38°17' W 123°25'5 9.4
2018-Feb-22 22:00N 38°12' W 123°26'510.1
2018-Feb-22 21:30N 38°07' W 123°26'510.0
2018-Feb-22 21:00N 38°02' W 123°25'510.2
2018-Feb-22 20:30N 37°57' W 123°25'510.1
2018-Feb-22 20:00N 37°52' W 123°24'510.6
2018-Feb-22 19:30N 37°47' W 123°24'510.3
2018-Feb-22 19:00N 37°41' W 123°25'6 8.9
2018-Feb-22 18:22N 37°36' W 123°23'17411.0
2018-Feb-22 02:34N 35°08' W 121°29'112.6
2018-Feb-22 02:30N 35°07' W 121°28'612.8
2018-Feb-22 02:00N 35°02' W 121°24'612.2
2018-Feb-22 01:30N 34°57' W 121°19'612.4
2018-Feb-22 01:00N 34°52' W 121°15'612.7
2018-Feb-22 00:29N 34°47' W 121°10'612.8
2018-Feb-22 00:00N 34°42' W 121°06'612.4
2018-Feb-21 23:30N 34°37' W 121°01'612.4
2018-Feb-21 23:00N 34°32' W 120°56'612.5
2018-Feb-21 22:30N 34°27' W 120°52'612.1
2018-Feb-21 22:00N 34°25' W 120°45'712.2
2018-Feb-21 21:28N 34°23' W 120°38'612.1
2018-Feb-21 21:00N 34°22' W 120°31'612.2
2018-Feb-21 20:29N 34°20' W 120°24'612.3
2018-Feb-21 19:59N 34°18' W 120°16'712.2
2018-Feb-21 19:26N 34°16' W 120°09'612.5
2018-Feb-21 18:58N 34°15' W 120°02'612.5
2018-Feb-21 18:29N 34°13' W 119°55'712.5
2018-Feb-21 17:56N 34°11' W 119°47'612.9
2018-Feb-21 17:30N 34°10' W 119°40'813.1
2018-Feb-21 16:56N 34°08' W 119°32'713.0
2018-Feb-21 16:22N 34°06' W 119°23'513.0
2018-Feb-21 16:00N 34°05' W 119°18'713.0
2018-Feb-21 15:26N 34°02' W 119°09'613.1
2018-Feb-21 15:00N 33°59' W 119°04'713.2
2018-Feb-21 14:30N 33°55' W 118°57'713.3
2018-Feb-21 14:00N 33°52' W 118°50'713.4
2018-Feb-21 13:29N 33°49' W 118°43'2113.1
2018-Feb-21 11:52N 33°38' W 118°20'711.6
2018-Feb-21 11:18N 33°38' W 118°13'311.9
2018-Feb-21 11:00N 33°42' W 118°11'3 5.6
2018-Feb-21 10:29N 33°45' W 118°12'0 0.0
2018-Feb-21 09:59N 33°45' W 118°12'0 0.0
2018-Feb-21 09:29N 33°45' W 118°12'0 0.0
2018-Feb-21 08:59N 33°45' W 118°12'0 0.0
2018-Feb-21 08:29N 33°45' W 118°12'0 0.0
2018-Feb-21 07:59N 33°45' W 118°12'0 0.0
2018-Feb-21 07:29N 33°45' W 118°12'0 0.0
2018-Feb-21 06:59N 33°45' W 118°12'0 0.0
2018-Feb-21 06:29N 33°45' W 118°12'0 0.0
2018-Feb-21 05:59N 33°45' W 118°12'0 0.0
2018-Feb-21 05:29N 33°45' W 118°12'0 0.0
2018-Feb-21 04:59N 33°45' W 118°12'0 0.0
2018-Feb-21 04:29N 33°45' W 118°12'0 0.0
2018-Feb-21 03:59N 33°45' W 118°12'0 0.0
2018-Feb-21 03:29N 33°45' W 118°12'0 0.0
2018-Feb-21 02:59N 33°45' W 118°12'0 0.0
2018-Feb-21 02:29N 33°45' W 118°12'0 0.0
2018-Feb-21 01:59N 33°45' W 118°12'0 0.0
2018-Feb-21 01:29N 33°45' W 118°12'0 0.0
2018-Feb-21 00:59N 33°45' W 118°12'0 0.0
2018-Feb-21 00:29N 33°45' W 118°12'0 0.0
2018-Feb-20 23:59N 33°45' W 118°12'0 0.0
2018-Feb-20 23:29N 33°45' W 118°12'0 0.0
2018-Feb-20 22:59N 33°45' W 118°12'0 0.0
2018-Feb-20 22:29N 33°45' W 118°12'0 0.0
2018-Feb-20 21:59N 33°45' W 118°12'0 0.0
2018-Feb-20 21:29N 33°45' W 118°12'0 0.0
2018-Feb-20 20:59N 33°45' W 118°12'0 0.0
2018-Feb-20 20:29N 33°45' W 118°12'0 0.0
2018-Feb-20 19:59N 33°45' W 118°12'0 0.0
2018-Feb-20 19:26N 33°45' W 118°12'0 0.0
2018-Feb-20 18:59N 33°45' W 118°12'0 0.0
2018-Feb-20 18:26N 33°45' W 118°12'0 0.0
2018-Feb-20 17:59N 33°45' W 118°12'0 0.0
2018-Feb-20 17:29N 33°45' W 118°12'0 0.0
2018-Feb-20 16:59N 33°45' W 118°12'0 0.0
2018-Feb-20 16:29N 33°45' W 118°12'0 0.0
2018-Feb-20 15:59N 33°45' W 118°12'0 0.0
2018-Feb-20 15:29N 33°45' W 118°12'0 0.5
2018-Feb-20 15:00N 33°44' W 118°12'2 3.3
2018-Feb-20 14:30N 33°45' W 118°10'0 0.0
2018-Feb-20 11:09N 33°45' W 118°10'0 0.0
2018-Feb-20 10:57N 33°45' W 118°10'0 0.0
2018-Feb-20 09:45N 33°45' W 118°10'0 0.0
2018-Feb-20 09:30N 33°45' W 118°10'0 0.0
2018-Feb-20 03:03N 33°45' W 118°10'0 0.0
2018-Feb-20 02:54N 33°45' W 118°10'0 0.0
2018-Feb-20 02:26N 33°45' W 118°10'0 0.1
2018-Feb-20 01:57N 33°45' W 118°10'0 0.0
2018-Feb-20 01:29N 33°45' W 118°10'0 0.1
2018-Feb-20 01:00N 33°45' W 118°10'0 0.1
2018-Feb-20 00:30N 33°45' W 118°10'0 0.1
2018-Feb-20 00:00N 33°45' W 118°10'0 0.0
2018-Feb-19 23:27N 33°45' W 118°10'0 0.1
2018-Feb-19 23:00N 33°45' W 118°10'0 0.1
2018-Feb-19 22:27N 33°45' W 118°10'0 0.0
2018-Feb-19 21:59N 33°45' W 118°10'0 0.1
2018-Feb-19 21:24N 33°45' W 118°10'0 0.1
2018-Feb-19 20:59N 33°45' W 118°10'0 0.0
2018-Feb-19 20:29N 33°45' W 118°10'0 0.0
2018-Feb-19 20:00N 33°45' W 118°10'0 0.0
2018-Feb-19 19:30N 33°45' W 118°10'0 0.0
2018-Feb-19 19:00N 33°45' W 118°10'0 0.0
2018-Feb-19 18:30N 33°45' W 118°10'0 0.0
2018-Feb-19 17:59N 33°45' W 118°10'0 0.0
2018-Feb-19 17:29N 33°45' W 118°10'0 0.0
2018-Feb-19 17:00N 33°45' W 118°10'0 0.0
2018-Feb-19 16:29N 33°45' W 118°10'0 0.0
2018-Feb-19 16:00N 33°45' W 118°10'0 0.0
2018-Feb-19 15:29N 33°45' W 118°10'0 0.0
2018-Feb-19 14:59N 33°45' W 118°10'0 0.0
2018-Feb-19 14:20N 33°45' W 118°10'0 0.0
2018-Feb-19 13:33N 33°45' W 118°10'0 0.0
2018-Feb-19 13:23N 33°45' W 118°10'0 0.0
2018-Feb-19 12:56N 33°45' W 118°10'0 0.0
2018-Feb-19 09:56N 33°45' W 118°10'0 0.0
2018-Feb-19 09:20N 33°45' W 118°10'0 0.0
2018-Feb-19 06:02N 33°45' W 118°10'0 0.4
2018-Feb-19 05:59N 33°45' W 118°10'0 0.0
2018-Feb-19 05:17N 33°45' W 118°10'0 0.0
2018-Feb-19 04:59N 33°45' W 118°10'0 0.0
2018-Feb-19 04:29N 33°45' W 118°10'0 0.0
2018-Feb-19 03:59N 33°45' W 118°10'0 0.0
2018-Feb-19 03:05N 33°45' W 118°10'0 0.0
2018-Feb-19 02:50N 33°45' W 118°10'0 0.0
2018-Feb-19 02:29N 33°45' W 118°10'0 0.0
2018-Feb-19 01:50N 33°45' W 118°10'0 0.0
2018-Feb-19 01:29N 33°45' W 118°10'0 0.0
2018-Feb-19 00:59N 33°45' W 118°10'0 0.0
2018-Feb-19 00:29N 33°45' W 118°10'0 0.0
2018-Feb-18 23:59N 33°45' W 118°10'0 0.0
2018-Feb-18 23:29N 33°45' W 118°10'0 0.0
2018-Feb-18 22:59N 33°45' W 118°10'0 0.0
2018-Feb-18 22:29N 33°45' W 118°10'0 0.0
2018-Feb-18 21:59N 33°45' W 118°10'0 0.0
2018-Feb-18 21:29N 33°45' W 118°10'0 0.1
2018-Feb-18 20:56N 33°45' W 118°10'0 0.0
2018-Feb-18 20:29N 33°45' W 118°10'0 0.0
2018-Feb-18 19:59N 33°45' W 118°10'0 0.0
2018-Feb-18 19:29N 33°45' W 118°10'0 0.0
2018-Feb-18 18:59N 33°45' W 118°10'0 0.2
2018-Feb-18 18:26N 33°45' W 118°10'0 0.1
2018-Feb-18 17:59N 33°45' W 118°10'0 0.1
2018-Feb-18 17:29N 33°45' W 118°10'0 0.0
2018-Feb-18 16:56N 33°45' W 118°10'0 0.0
2018-Feb-18 16:29N 33°45' W 118°10'0 0.0
2018-Feb-18 15:59N 33°45' W 118°10'0 0.1
2018-Feb-18 15:26N 33°45' W 118°10'0 0.0
2018-Feb-18 14:59N 33°45' W 118°10'0 0.0
2018-Feb-18 14:29N 33°45' W 118°10'0 0.0
2018-Feb-18 13:32N 33°45' W 118°10'0 0.0
2018-Feb-18 13:20N 33°45' W 118°10'0 0.0
2018-Feb-18 12:56N 33°45' W 118°10'0 0.0
2018-Feb-18 12:26N 33°45' W 118°10'0 0.0
2018-Feb-18 11:57N 33°45' W 118°10'0 0.0
2018-Feb-18 11:26N 33°45' W 118°10'0 0.0
2018-Feb-18 10:50N 33°45' W 118°10'0 0.0
2018-Feb-18 10:26N 33°45' W 118°10'0 0.1
2018-Feb-18 09:50N 33°45' W 118°10'0 0.0
2018-Feb-18 08:26N 33°45' W 118°10'0 0.0
2018-Feb-18 07:56N 33°45' W 118°10'0 0.1
2018-Feb-18 07:26N 33°45' W 118°10'0 0.0
2018-Feb-18 06:59N 33°45' W 118°10'0 0.1
2018-Feb-18 06:26N 33°45' W 118°10'0 0.1
2018-Feb-18 05:47N 33°45' W 118°10'0 0.1
2018-Feb-18 05:08N 33°45' W 118°10'0 0.0
2018-Feb-18 02:02N 33°45' W 118°10'0 0.0
2018-Feb-18 01:50N 33°45' W 118°10'0 0.1
2018-Feb-18 01:29N 33°45' W 118°10'0 0.0
2018-Feb-18 00:59N 33°45' W 118°10'0 0.1
2018-Feb-18 00:26N 33°45' W 118°10'0 0.1
2018-Feb-17 23:59N 33°45' W 118°10'0 0.1
2018-Feb-17 23:29N 33°45' W 118°10'0 0.0
2018-Feb-17 22:59N 33°45' W 118°10'0 0.0
2018-Feb-17 22:23N 33°45' W 118°10'0 0.0
2018-Feb-17 21:59N 33°45' W 118°10'0 0.1
2018-Feb-17 21:29N 33°45' W 118°10'0 0.0
2018-Feb-17 20:56N 33°45' W 118°10'0 0.0
2018-Feb-17 20:26N 33°45' W 118°10'0 0.0
2018-Feb-17 19:59N 33°45' W 118°10'0 0.0
2018-Feb-17 19:29N 33°45' W 118°10'0 0.0
2018-Feb-17 18:59N 33°45' W 118°10'0 0.0
2018-Feb-17 18:29N 33°45' W 118°10'0 0.1
2018-Feb-17 17:59N 33°45' W 118°10'0 0.0
2018-Feb-17 17:26N 33°45' W 118°10'0 0.0
2018-Feb-17 16:59N 33°45' W 118°10'0 0.1
2018-Feb-17 16:30N 33°45' W 118°10'3 6.3
2018-Feb-17 16:00N 33°42' W 118°11'4 7.9
2018-Feb-17 15:30N 33°38' W 118°12'510.1
2018-Feb-17 14:59N 33°36' W 118°18'1011.0
2018-Feb-17 14:02N 33°40' W 118°30'011.6
2018-Feb-17 14:00N 33°41' W 118°30'611.5
2018-Feb-17 13:30N 33°43' W 118°36'612.5
2018-Feb-17 13:00N 33°46' W 118°43'712.7
2018-Feb-17 12:26N 33°50' W 118°50'612.9
2018-Feb-17 11:59N 33°53' W 118°57'612.5
2018-Feb-17 11:29N 33°56' W 119°03'712.6
2018-Feb-17 10:57N 33°59' W 119°10'612.8
2018-Feb-17 10:29N 34°02' W 119°16'612.6
2018-Feb-17 10:00N 34°04' W 119°23'712.8
2018-Feb-17 09:30N 34°06' W 119°31'712.9
2018-Feb-17 08:57N 34°08' W 119°39'613.1
2018-Feb-17 08:30N 34°09' W 119°46'613.4
2018-Feb-17 08:00N 34°11' W 119°54'712.8
2018-Feb-17 07:29N 34°13' W 120°01'612.6
2018-Feb-17 07:00N 34°14' W 120°08'712.8
2018-Feb-17 06:30N 34°16' W 120°16'712.8
2018-Feb-17 05:57N 34°18' W 120°24'612.6
2018-Feb-17 05:29N 34°19' W 120°31'612.6
2018-Feb-17 04:59N 34°21' W 120°39'712.7
2018-Feb-17 04:28N 34°23' W 120°46'612.9
2018-Feb-17 04:00N 34°24' W 120°53'613.0
2018-Feb-17 03:30N 34°25' W 121°01'713.5
2018-Feb-17 03:00N 34°27' W 121°09'714.0
2018-Feb-17 02:31N 34°29' W 121°17'713.8
2018-Feb-17 02:00N 34°30' W 121°25'713.6
2018-Feb-17 01:30N 34°31' W 121°33'713.3
2018-Feb-17 01:00N 34°32' W 121°41'613.0
2018-Feb-17 00:30N 34°34' W 121°49'713.0
2018-Feb-17 00:00N 34°35' W 121°57'612.5
2018-Feb-16 23:30N 34°36' W 122°04'1912.2
2018-Feb-16 21:59N 34°40' W 122°27'712.4
2018-Feb-16 21:25N 34°41' W 122°35'512.1
2018-Feb-16 21:00N 34°41' W 122°41'712.0
2018-Feb-16 20:27N 34°42' W 122°49'512.1
2018-Feb-16 20:00N 34°42' W 122°56'2612.1
2018-Feb-16 17:53N 34°46' W 123°26'  

Dump ship's entire track history